地図

経路データ

SID SEASON NUMBER BASIN SUBBASIN NAME ISO_TIME NATURE LAT LON WMO_WIND WMO_PRES WMO_AGENCY TRACK_TYPE DIST2LAND LANDFALL IFLAG USA_AGENCY USA_ATCF_ID USA_LAT USA_LON USA_RECORD USA_STATUS USA_WIND USA_PRES USA_SSHS USA_R34_NE USA_R34_SE USA_R34_SW USA_R34_NW USA_R50_NE USA_R50_SE USA_R50_SW USA_R50_NW USA_R64_NE USA_R64_SE USA_R64_SW USA_R64_NW USA_POCI USA_ROCI USA_RMW USA_EYE TOKYO_LAT TOKYO_LON TOKYO_GRADE TOKYO_WIND TOKYO_PRES TOKYO_R50_DIR TOKYO_R50_LONG TOKYO_R50_SHORT TOKYO_R30_DIR TOKYO_R30_LONG TOKYO_R30_SHORT TOKYO_LAND CMA_LAT CMA_LON CMA_CAT CMA_WIND CMA_PRES HKO_LAT HKO_LON HKO_CAT HKO_WIND HKO_PRES NEWDELHI_LAT NEWDELHI_LON NEWDELHI_GRADE NEWDELHI_WIND NEWDELHI_PRES NEWDELHI_CI NEWDELHI_DP NEWDELHI_POCI REUNION_LAT REUNION_LON REUNION_TYPE REUNION_WIND REUNION_PRES REUNION_TNUM REUNION_CI REUNION_RMW REUNION_R34_NE REUNION_R34_SE REUNION_R34_SW REUNION_R34_NW REUNION_R50_NE REUNION_R50_SE REUNION_R50_SW REUNION_R50_NW REUNION_R64_NE REUNION_R64_SE REUNION_R64_SW REUNION_R64_NW BOM_LAT BOM_LON BOM_TYPE BOM_WIND BOM_PRES BOM_TNUM BOM_CI BOM_RMW BOM_R34_NE BOM_R34_SE BOM_R34_SW BOM_R34_NW BOM_R50_NE BOM_R50_SE BOM_R50_SW BOM_R50_NW BOM_R64_NE BOM_R64_SE BOM_R64_SW BOM_R64_NW BOM_ROCI BOM_POCI BOM_EYE BOM_POS_METHOD BOM_PRES_METHOD NADI_LAT NADI_LON NADI_CAT NADI_WIND NADI_PRES WELLINGTON_LAT WELLINGTON_LON WELLINGTON_WIND WELLINGTON_PRES DS824_LAT DS824_LON DS824_STAGE DS824_WIND DS824_PRES TD9636_LAT TD9636_LON TD9636_STAGE TD9636_WIND TD9636_PRES TD9635_LAT TD9635_LON TD9635_WIND TD9635_PRES TD9635_ROCI NEUMANN_LAT NEUMANN_LON NEUMANN_CLASS NEUMANN_WIND NEUMANN_PRES MLC_LAT MLC_LON MLC_CLASS MLC_WIND MLC_PRES USA_GUST BOM_GUST BOM_GUST_PER REUNION_GUST REUNION_GUST_PER USA_SEAHGT USA_SEARAD_NE USA_SEARAD_SE USA_SEARAD_SW USA_SEARAD_NW STORM_SPEED STORM_DIR
1883260N13332 1883 28 NA NA NOT_NAMED 1883-09-16 12:00:00 TS 12.5000 -28.0000 main 1161 1161 _____________O -1 12.5000 -28.0000 TD 25 10 288
1883260N13332 1883 28 NA NA NOT_NAMED 1883-09-16 15:00:00 TS 12.6627 -28.4998 main 1209 1209 _____________P -1 12.6627 -28.4998 TD 25 10 287
1883260N13332 1883 28 NA NA NOT_NAMED 1883-09-16 18:00:00 TS 12.8000 -29.0000 main 1260 1260 _____________O -1 12.8000 -29.0000 TD 25 10 284
1883260N13332 1883 28 NA NA NOT_NAMED 1883-09-16 21:00:00 TS 12.8999 -29.5001 main 1311 1311 _____________P -1 12.8999 -29.5001 TD 27 10 282
1883260N13332 1883 28 NA NA NOT_NAMED 1883-09-17 00:00:00 TS 13.0000 -30.0000 main 1363 1363 _____________O -1 13.0000 -30.0000 TD 30 10 284
1883260N13332 1883 28 NA NA NOT_NAMED 1883-09-17 03:00:00 TS 13.1499 -30.5000 main 1415 1413 _____________P -1 13.1499 -30.5000 TD 30 10 287
1883260N13332 1883 28 NA NA NOT_NAMED 1883-09-17 06:00:00 TS 13.3000 -31.0000 main 1465 1465 _____________O -1 13.3000 -31.0000 TD 30 9 281
1883260N13332 1883 28 NA NA NOT_NAMED 1883-09-17 09:00:00 TS 13.3244 -31.4336 main 1508 1508 _____________P -1 13.3244 -31.4336 TD 32 10 282
1883260N13332 1883 28 NA NA NOT_NAMED 1883-09-17 12:00:00 TS 13.5000 -32.0000 main 1570 1570 _____________O -1 13.5000 -32.0000 TS 35 17 297
1883260N13332 1883 28 NA NA NOT_NAMED 1883-09-17 15:00:00 TS 14.0760 -32.9561 main 1671 1671 _____________P -1 14.0760 -32.9561 TS 35 23 305
1883260N13332 1883 28 NA NA NOT_NAMED 1883-09-17 18:00:00 TS 14.8000 -33.9000 main 1763 1763 _____________O -1 14.8000 -33.9000 TS 35 19 314
1883260N13332 1883 28 NA NA NOT_NAMED 1883-09-17 21:00:00 TS 15.3990 -34.3888 main 1816 1816 _____________P -1 15.3990 -34.3888 TS 37 15 324
1883260N13332 1883 28 NA NA NOT_NAMED 1883-09-18 00:00:00 TS 16.0000 -34.8000 main 1860 1860 _____________O -1 16.0000 -34.8000 TS 40 16 320
1883260N13332 1883 28 NA NA NOT_NAMED 1883-09-18 03:00:00 TS 16.6502 -35.4699 main 1939 1939 _____________P -1 16.6502 -35.4699 TS 40 19 314
1883260N13332 1883 28 NA NA NOT_NAMED 1883-09-18 06:00:00 TS 17.3000 -36.2000 main 2019 2019 _____________O -1 17.3000 -36.2000 TS 40 18 312
1883260N13332 1883 28 NA NA NOT_NAMED 1883-09-18 09:00:00 TS 17.8700 -36.8955 main 2100 2100 _____________P -1 17.8700 -36.8955 TS 42 17 314
1883260N13332 1883 28 NA NA NOT_NAMED 1883-09-18 12:00:00 TS 18.5000 -37.5000 main 2150 2150 _____________O -1 18.5000 -37.5000 TS 45 18 326
1883260N13332 1883 28 NA NA NOT_NAMED 1883-09-18 15:00:00 TS 19.3197 -37.9454 main 2177 2177 _____________P -1 19.3197 -37.9454 TS 45 19 336
1883260N13332 1883 28 NA NA NOT_NAMED 1883-09-18 18:00:00 TS 20.2000 -38.3000 main 2207 2206 _____________O -1 20.2000 -38.3000 TS 45 18 339
1883260N13332 1883 28 NA NA NOT_NAMED 1883-09-18 21:00:00 TS 21.0073 -38.6507 main 2241 2240 _____________P -1 21.0073 -38.6507 TS 45 17 338
1883260N13332 1883 28 NA NA NOT_NAMED 1883-09-19 00:00:00 TS 21.8000 -39.0000 main 2268 2267 _____________O -1 21.8000 -39.0000 TS 45 17 336
1883260N13332 1883 28 NA NA NOT_NAMED 1883-09-19 03:00:00 TS 22.6000 -39.4002 main 2304 2304 _____________P -1 22.6000 -39.4002 TS 47 18 335
1883260N13332 1883 28 NA NA NOT_NAMED 1883-09-19 06:00:00 TS 23.4000 -39.8000 main 2344 2344 _____________O -1 23.4000 -39.8000 TS 50 18 336
1883260N13332 1883 28 NA NA NOT_NAMED 1883-09-19 09:00:00 TS 24.2075 -40.1801 main 2371 2367 _____________P -1 24.2075 -40.1801 TS 50 17 338
1883260N13332 1883 28 NA NA NOT_NAMED 1883-09-19 12:00:00 TS 25.0000 -40.5000 main 2377 2374 _____________O -1 25.0000 -40.5000 TS 50 16 342
1883260N13332 1883 28 NA NA NOT_NAMED 1883-09-19 15:00:00 TS 25.7574 -40.7306 main 2376 2375 _____________P -1 25.7574 -40.7306 TS 50 16 347
1883260N13332 1883 28 NA NA NOT_NAMED 1883-09-19 18:00:00 TS 26.5000 -40.9000 main 2381 2377 _____________O -1 26.5000 -40.9000 TS 50 15 347
1883260N13332 1883 28 NA NA NOT_NAMED 1883-09-19 21:00:00 TS 27.2500 -41.1019 main 2387 2320 _____________P -1 27.2500 -41.1019 TS 50 15 350
1883260N13332 1883 28 NA NA NOT_NAMED 1883-09-20 00:00:00 TS 28.0000 -41.2000 main 2320 2252 _____________O -1 28.0000 -41.2000 TS 50 15 0
1883260N13332 1883 28 NA NA NOT_NAMED 1883-09-20 03:00:00 TS 28.7500 -41.1031 main 2252 2180 _____________P -1 28.7500 -41.1030 TS 47 15 10
1883260N13332 1883 28 NA NA NOT_NAMED 1883-09-20 06:00:00 TS 29.5000 -40.9000 main 2180 2114 _____________O -1 29.5000 -40.9000 TS 45 15 11
1883260N13332 1883 28 NA NA NOT_NAMED 1883-09-20 09:00:00 TS 30.2271 -40.7656 main 2114 2048 _____________P -1 30.2271 -40.7656 TS 45 15 13
1883260N13332 1883 28 NA NA NOT_NAMED 1883-09-20 12:00:00 TS 31.0000 -40.5000 main 2048 1994 _____________O -1 31.0000 -40.5000 TS 45 18 22
1883260N13332 1883 28 NA NA NOT_NAMED 1883-09-20 15:00:00 TS 31.8853 -39.9682 main 1984 1934 _____________P -1 31.8853 -39.9682 TS 45 21 30
1883260N13332 1883 28 NA NA NOT_NAMED 1883-09-20 18:00:00 TS 32.8000 -39.3000 main 1934 1892 _____________O -1 32.8000 -39.3000 TS 45 21 33
1883260N13332 1883 28 NA NA NOT_NAMED 1883-09-20 21:00:00 TS 33.6506 -38.5835 main 1888 1851 _____________P -1 33.6506 -38.5835 TS 45 20 32
1883260N13332 1883 28 NA NA NOT_NAMED 1883-09-21 00:00:00 TS 34.5000 -38.0000 main 1851 1794 _____________O -1 34.5000 -38.0000 TS 45 19 21
1883260N13332 1883 28 NA NA NOT_NAMED 1883-09-21 03:00:00 TS 35.3994 -37.7652 main 1786 1717 _____________P -1 35.3994 -37.7652 TS 45 18 8
1883260N13332 1883 28 NA NA NOT_NAMED 1883-09-21 06:00:00 TS 36.3000 -37.7000 main 1717 1654 _____________O -1 36.3000 -37.7000 TS 45 17 3
1883260N13332 1883 28 NA NA NOT_NAMED 1883-09-21 09:00:00 TS 37.1196 -37.6493 main 1660 1604 _____________P -1 37.1196 -37.6493 TS 42 17 5
1883260N13332 1883 28 NA NA NOT_NAMED 1883-09-21 12:00:00 TS 38.0000 -37.5000 main 1597 1550 _____________O -1 38.0000 -37.5000 TS 40 20 13
1883260N13332 1883 28 NA NA NOT_NAMED 1883-09-21 15:00:00 TS 39.0704 -37.0616 main 1543 1510 _____________P -1 39.0704 -37.0616 TS 40 23 19
1883260N13332 1883 28 NA NA NOT_NAMED 1883-09-21 18:00:00 TS 40.2000 -36.5000 main 1511 1485 _____________O -1 40.2000 -36.5000 TS 40 23 21
1883260N13332 1883 28 NA NA NOT_NAMED 1883-09-21 21:00:00 TS 41.2576 -35.9626 main 1479 1460 _____________P -1 41.2576 -35.9626 TS 40 22 20
1883260N13332 1883 28 NA NA NOT_NAMED 1883-09-22 00:00:00 ET 42.3000 -35.5000 main 1456 1427 _____________O -1 42.3000 -35.5000 EX 40 22 15
1883260N13332 1883 28 NA NA NOT_NAMED 1883-09-22 03:00:00 ET 43.3496 -35.2098 main 1427 1398 _____________P -1 43.3496 -35.2098 EX 40 21 10
1883260N13332 1883 28 NA NA NOT_NAMED 1883-09-22 06:00:00 ET 44.4000 -35.0000 main 1394 1374 _____________O -1 44.4000 -35.0000 EX 40 22 9
1883260N13332 1883 28 NA NA NOT_NAMED 1883-09-22 09:00:00 ET 45.4799 -34.7495 main 1379 1365 _____________P -1 45.4799 -34.7495 EX 40 21 9
1883260N13332 1883 28 NA NA NOT_NAMED 1883-09-22 12:00:00 ET 46.5000 -34.5000 main 1368 1363 _____________O -1 46.5000 -34.5000 EX 40 979 19 10
1883260N13332 1883 28 NA NA NOT_NAMED 1883-09-22 15:00:00 ET 47.3874 -34.2489 main 1374 1370 _____________P -1 47.3874 -34.2489 EX 40 17 11
1883260N13332 1883 28 NA NA NOT_NAMED 1883-09-22 18:00:00 ET 48.2000 -34.0000 main 1380 1361 _____________O -1 48.2000 -34.0000 EX 40 16 8
1883260N13332 1883 28 NA NA NOT_NAMED 1883-09-22 21:00:00 ET 49.0052 -33.8917 main 1361 1291 _____________P -1 49.0052 -33.8917 EX 40 16 12
1883260N13332 1883 28 NA NA NOT_NAMED 1883-09-23 00:00:00 ET 49.8000 -33.5000 main 1291 1242 _____________O -1 49.8000 -33.5000 EX 40 19 31
1883260N13332 1883 28 NA NA NOT_NAMED 1883-09-23 03:00:00 ET 50.6023 -32.4031 main 1245 1215 _____________P -1 50.6023 -32.4031 EX 37 22 45
1883260N13332 1883 28 NA NA NOT_NAMED 1883-09-23 06:00:00 ET 51.4000 -31.0000 main 1219 1194 _____________O -1 51.4000 -31.0000 EX 35 23 46
1883260N13332 1883 28 NA NA NOT_NAMED 1883-09-23 09:00:00 ET 52.2001 -29.7050 main 1198 1178 _____________P -1 52.2001 -29.7050 EX 35 22 44
1883260N13332 1883 28 NA NA NOT_NAMED 1883-09-23 12:00:00 ET 53.0000 -28.5000 main 1182 _____________O -1 53.0000 -28.5000 EX 35 979 22 42

IBTrACS Databaseについて

本データベースは、米国NOAAが公開する1842年以降の世界の熱帯低気圧のベストトラックデータアーカイブInternational Best Track Archive for Climate Stewardship (IBTrACS)を、ウェブで閲覧しやすい形式に変換したものです。

最終更新日:2021-10-08